createdAt,value
2018-12-07T00:00:06.306Z,5.00
2018-12-07T00:02:33.957Z,5.00
2018-12-07T00:05:02.122Z,5.00
2018-12-07T00:07:29.594Z,5.00
2018-12-07T00:09:57.033Z,4.90
2018-12-07T00:12:24.546Z,5.00
2018-12-07T00:14:51.974Z,5.00
2018-12-07T00:17:19.611Z,5.00
2018-12-07T00:19:48.097Z,4.90
2018-12-07T00:22:15.875Z,5.00
2018-12-07T00:24:43.361Z,4.90
2018-12-07T00:27:10.794Z,4.90
2018-12-07T00:29:38.665Z,5.10
2018-12-07T00:32:06.653Z,5.10
2018-12-07T00:34:34.314Z,5.20
2018-12-07T00:37:02.189Z,5.20
2018-12-07T00:39:29.807Z,5.20
2018-12-07T00:41:57.247Z,5.20
2018-12-07T00:44:25.662Z,5.20
2018-12-07T00:46:53.245Z,5.20
2018-12-07T00:49:20.914Z,5.20
2018-12-07T00:54:15.858Z,5.10
2018-12-07T00:56:43.371Z,5.10
2018-12-07T00:59:10.813Z,5.20
2018-12-07T01:01:38.623Z,5.10
2018-12-07T01:04:06.903Z,5.10
2018-12-07T01:06:34.329Z,5.10
2018-12-07T01:09:01.825Z,5.20
2018-12-07T01:11:29.516Z,5.10
2018-12-07T01:13:57.327Z,5.10
2018-12-07T01:16:24.795Z,5.20
2018-12-07T01:18:52.588Z,5.20
2018-12-07T01:21:20.029Z,5.20
2018-12-07T01:23:47.494Z,5.20
2018-12-07T01:26:15.225Z,5.20
2018-12-07T01:28:43.025Z,5.20
2018-12-07T01:31:10.468Z,5.20
2018-12-07T01:33:38.297Z,5.20
2018-12-07T01:36:06.009Z,5.20
2018-12-07T01:38:33.462Z,5.20
2018-12-07T01:41:01.077Z,5.30
2018-12-07T01:43:28.910Z,5.20
2018-12-07T01:45:56.577Z,5.20
2018-12-07T01:48:24.017Z,5.30
2018-12-07T01:50:51.777Z,5.20
2018-12-07T01:53:19.218Z,5.20
2018-12-07T01:55:47.013Z,5.30
2018-12-07T01:58:14.450Z,5.30
2018-12-07T02:00:42.277Z,5.30
2018-12-07T02:03:09.717Z,5.30
2018-12-07T02:05:37.589Z,5.30
2018-12-07T02:08:05.065Z,5.30
2018-12-07T02:10:32.555Z,5.30
2018-12-07T02:13:00.053Z,5.40
2018-12-07T02:15:27.617Z,5.40
2018-12-07T02:17:55.138Z,5.50
2018-12-07T02:20:22.886Z,5.40
2018-12-07T02:22:50.329Z,5.30
2018-12-07T02:25:17.820Z,5.20
2018-12-07T02:27:51.245Z,5.30
2018-12-07T02:30:19.119Z,5.20
2018-12-07T02:32:46.826Z,5.30
2018-12-07T02:35:14.506Z,5.30
2018-12-07T02:37:41.993Z,5.40
2018-12-07T02:40:09.992Z,5.30
2018-12-07T02:42:37.525Z,5.40
2018-12-07T02:45:05.141Z,5.40
2018-12-07T02:47:32.610Z,5.40
2018-12-07T02:50:00.364Z,5.30
2018-12-07T02:52:27.921Z,5.30
2018-12-07T02:54:55.385Z,5.30
2018-12-07T02:57:22.832Z,5.30
2018-12-07T02:59:50.761Z,5.30
2018-12-07T03:02:18.217Z,5.30
2018-12-07T03:04:45.919Z,5.40
2018-12-07T03:07:13.382Z,5.40
2018-12-07T03:09:40.862Z,5.50
2018-12-07T03:12:08.320Z,5.50
2018-12-07T03:14:35.760Z,5.50
2018-12-07T03:17:03.437Z,5.50
2018-12-07T03:19:31.055Z,5.50
2018-12-07T03:21:58.500Z,5.50
2018-12-07T03:24:26.607Z,5.50
2018-12-07T03:26:54.113Z,5.60
2018-12-07T03:29:21.996Z,5.60
2018-12-07T03:31:49.936Z,5.70
2018-12-07T03:34:17.722Z,5.70
2018-12-07T03:36:45.484Z,5.70
2018-12-07T03:39:12.929Z,5.70
2018-12-07T03:41:40.649Z,5.70
2018-12-07T03:44:08.081Z,5.80
2018-12-07T03:46:35.662Z,5.70
2018-12-07T03:49:03.499Z,5.70
2018-12-07T03:51:30.957Z,5.70
2018-12-07T03:53:58.468Z,5.70
2018-12-07T03:56:25.918Z,5.60
2018-12-07T03:58:53.633Z,5.70
2018-12-07T04:01:21.119Z,5.70
2018-12-07T04:03:49.145Z,5.60
2018-12-07T04:06:16.631Z,5.60
2018-12-07T04:08:44.112Z,5.70
2018-12-07T04:11:11.570Z,5.70
2018-12-07T04:13:39.461Z,5.70
2018-12-07T04:16:06.976Z,5.70
2018-12-07T04:18:34.922Z,5.70
2018-12-07T04:21:02.442Z,5.70
2018-12-07T04:23:29.901Z,5.80
2018-12-07T04:25:57.367Z,5.80
2018-12-07T04:28:25.272Z,5.70
2018-12-07T04:30:53.121Z,5.70
2018-12-07T04:33:20.791Z,5.70
2018-12-07T04:35:48.750Z,5.70
2018-12-07T04:38:16.182Z,5.70
2018-12-07T04:40:44.015Z,5.80
2018-12-07T04:43:11.446Z,5.80
2018-12-07T04:45:39.214Z,5.80
2018-12-07T04:48:06.695Z,5.80
2018-12-07T04:50:34.521Z,5.80
2018-12-07T04:53:01.962Z,5.80
2018-12-07T04:55:29.409Z,5.90
2018-12-07T04:57:56.933Z,5.90
2018-12-07T05:00:24.418Z,5.80
2018-12-07T05:02:51.867Z,5.80
2018-12-07T05:05:20.030Z,5.80
2018-12-07T05:07:47.618Z,5.90
2018-12-07T05:10:15.102Z,5.90
2018-12-07T05:12:42.639Z,5.90
2018-12-07T05:15:10.117Z,6.00
2018-12-07T05:20:14.440Z,5.90
2018-12-07T05:22:41.893Z,5.90
2018-12-07T05:25:09.464Z,6.00
2018-12-07T05:27:36.967Z,6.00
2018-12-07T05:30:05.577Z,6.00
2018-12-07T05:32:33.117Z,6.00
2018-12-07T05:35:00.735Z,6.00
2018-12-07T05:37:28.170Z,6.00
2018-12-07T05:39:55.627Z,6.00
2018-12-07T05:42:23.181Z,6.10
2018-12-07T05:44:50.700Z,6.00
2018-12-07T05:47:18.187Z,6.00
2018-12-07T05:49:46.068Z,6.10
2018-12-07T05:52:13.672Z,6.00
2018-12-07T05:54:41.173Z,6.00
2018-12-07T05:57:08.607Z,6.00
2018-12-07T05:59:36.083Z,6.10
2018-12-07T06:02:03.912Z,6.10
2018-12-07T06:04:31.568Z,6.10
2018-12-07T06:06:59.013Z,6.10
2018-12-07T06:09:26.463Z,6.10
2018-12-07T06:11:55.105Z,6.10
2018-12-07T06:14:22.677Z,6.10
2018-12-07T06:16:50.143Z,6.10
2018-12-07T06:19:17.959Z,6.10
2018-12-07T06:21:45.408Z,6.10
2018-12-07T06:24:12.914Z,6.10
2018-12-07T06:26:40.556Z,6.10
2018-12-07T06:29:07.993Z,6.10
2018-12-07T06:31:35.921Z,6.20
2018-12-07T06:34:03.728Z,6.20
2018-12-07T06:36:31.539Z,6.20
2018-12-07T06:38:59.286Z,6.20
2018-12-07T06:41:26.735Z,6.20
2018-12-07T06:43:54.172Z,6.30
2018-12-07T06:46:21.638Z,6.30
2018-12-07T06:49:05.256Z,6.30
2018-12-07T06:51:32.841Z,6.40
2018-12-07T06:54:00.313Z,6.40
2018-12-07T06:56:27.767Z,6.40
2018-12-07T06:58:55.340Z,6.40
2018-12-07T07:01:22.816Z,6.40
2018-12-07T07:03:50.600Z,6.40
2018-12-07T07:06:18.079Z,6.40
2018-12-07T07:08:46.035Z,6.40
2018-12-07T07:11:13.501Z,6.50
2018-12-07T07:13:41.552Z,6.50
2018-12-07T07:16:09.353Z,6.50
2018-12-07T07:18:37.044Z,6.50
2018-12-07T07:21:04.542Z,6.50
2018-12-07T07:23:31.990Z,6.60
2018-12-07T07:25:59.476Z,6.60
2018-12-07T07:28:30.066Z,6.60
2018-12-07T07:30:57.895Z,6.70
2018-12-07T07:33:25.397Z,6.70
2018-12-07T07:35:53.050Z,6.70
2018-12-07T07:38:20.532Z,6.70
2018-12-07T07:40:47.974Z,6.80
2018-12-07T07:43:15.454Z,6.80
2018-12-07T07:45:42.910Z,6.80
2018-12-07T07:48:10.395Z,6.90
2018-12-07T07:50:38.161Z,6.80
2018-12-07T07:53:05.611Z,6.90
2018-12-07T07:55:33.127Z,7.00
2018-12-07T07:58:00.573Z,7.00
2018-12-07T08:00:28.073Z,7.00
2018-12-07T08:02:55.617Z,7.00
2018-12-07T08:05:24.209Z,7.00
2018-12-07T08:07:51.684Z,7.00
2018-12-07T08:10:19.370Z,7.00
2018-12-07T08:12:46.798Z,7.00
2018-12-07T08:15:14.240Z,7.10
2018-12-07T08:17:41.699Z,7.10
2018-12-07T08:20:09.685Z,7.10
2018-12-07T08:22:37.164Z,7.10
2018-12-07T08:25:05.311Z,7.10
2018-12-07T08:27:32.754Z,7.10
2018-12-07T08:30:00.729Z,7.10
2018-12-07T08:32:28.365Z,7.10
2018-12-07T08:34:56.801Z,7.10
2018-12-07T08:37:24.431Z,7.10
2018-12-07T08:39:51.889Z,7.20
2018-12-07T08:42:19.422Z,7.30
2018-12-07T08:44:46.917Z,7.30
2018-12-07T08:47:14.419Z,7.40
2018-12-07T08:49:47.863Z,7.40
2018-12-07T08:52:16.225Z,7.40
2018-12-07T08:54:43.748Z,7.40
2018-12-07T08:57:11.297Z,7.50
2018-12-07T08:59:38.796Z,7.50
2018-12-07T09:02:06.313Z,7.40
2018-12-07T09:04:34.057Z,7.50
2018-12-07T09:07:01.562Z,7.60
2018-12-07T09:09:29.149Z,7.70
2018-12-07T09:11:56.886Z,7.70
2018-12-07T09:14:24.332Z,7.80
2018-12-07T09:19:19.669Z,7.80
2018-12-07T09:21:47.481Z,7.90
2018-12-07T09:24:14.957Z,8.00
2018-12-07T09:26:42.397Z,8.10
2018-12-07T09:29:09.876Z,8.10
2018-12-07T09:31:37.604Z,8.20
2018-12-07T09:34:05.291Z,8.20
2018-12-07T09:36:32.816Z,8.20
2018-12-07T09:39:00.264Z,8.20
2018-12-07T09:41:28.105Z,8.20
2018-12-07T09:43:55.586Z,8.30
2018-12-07T09:46:23.498Z,8.30
2018-12-07T09:48:50.988Z,8.40
2018-12-07T09:51:18.769Z,8.50
2018-12-07T09:53:46.229Z,8.60
2018-12-07T09:56:13.675Z,8.70
2018-12-07T09:58:41.132Z,9.00
2018-12-07T10:01:08.570Z,9.10
2018-12-07T10:03:36.365Z,9.30
2018-12-07T10:06:03.896Z,9.30
2018-12-07T10:08:31.385Z,9.30
2018-12-07T10:10:58.888Z,9.40
2018-12-07T10:13:26.336Z,9.40
2018-12-07T10:15:53.828Z,9.40
2018-12-07T10:18:21.771Z,9.30
2018-12-07T10:20:50.460Z,9.40
2018-12-07T10:23:17.911Z,9.50
2018-12-07T10:25:45.365Z,9.70
2018-12-07T10:28:12.862Z,9.70
2018-12-07T10:30:40.816Z,9.90
2018-12-07T10:33:08.560Z,10.10
2018-12-07T10:35:36.441Z,10.40
2018-12-07T10:38:03.932Z,10.50
2018-12-07T10:40:31.372Z,10.70
2018-12-07T10:42:59.097Z,11.10
2018-12-07T10:45:26.974Z,11.60
2018-12-07T10:47:54.417Z,12.00
2018-12-07T10:50:21.911Z,12.30
2018-12-07T10:52:49.384Z,12.70
2018-12-07T10:55:16.831Z,12.90
2018-12-07T10:57:44.308Z,13.10
2018-12-07T11:00:13.801Z,13.20
2018-12-07T11:02:47.249Z,13.10
2018-12-07T11:05:22.362Z,13.00
2018-12-07T11:07:55.627Z,12.80
2018-12-07T11:10:29.212Z,12.90
2018-12-07T11:16:09.117Z,12.60
2018-12-07T11:18:42.556Z,12.50
2018-12-07T11:21:15.681Z,12.50
2018-12-07T11:23:50.110Z,12.40
2018-12-07T11:26:23.219Z,12.40
2018-12-07T11:28:56.417Z,12.30
2018-12-07T11:31:29.965Z,12.20
2018-12-07T11:33:59.079Z,12.10
2018-12-07T11:36:26.850Z,12.10
2018-12-07T11:38:54.300Z,12.20
2018-12-07T11:41:21.765Z,12.00
2018-12-07T11:43:49.271Z,11.90
2018-12-07T11:46:16.731Z,11.90
2018-12-07T11:48:44.321Z,11.90
2018-12-07T11:51:13.302Z,11.80
2018-12-07T11:53:40.978Z,11.90
2018-12-07T11:56:08.491Z,11.90
2018-12-07T11:58:36.000Z,11.80
2018-12-07T12:01:03.949Z,11.80
2018-12-07T12:03:31.857Z,11.80
2018-12-07T12:05:59.293Z,11.80
2018-12-07T12:08:26.749Z,11.80
2018-12-07T12:10:54.206Z,11.70
2018-12-07T12:13:21.682Z,11.70
2018-12-07T12:15:49.497Z,11.70
2018-12-07T12:18:17.874Z,11.70
2018-12-07T12:20:45.622Z,11.70
2018-12-07T12:23:13.132Z,11.80
2018-12-07T12:25:40.575Z,11.90
2018-12-07T12:28:08.322Z,12.00
2018-12-07T12:30:36.024Z,12.00
2018-12-07T12:33:03.881Z,12.10
2018-12-07T12:35:31.615Z,12.10
2018-12-07T12:37:59.093Z,12.10
2018-12-07T12:40:26.539Z,12.00
2018-12-07T12:42:54.289Z,12.00
2018-12-07T12:45:21.764Z,12.10
2018-12-07T12:47:49.239Z,12.10
2018-12-07T12:50:22.473Z,12.10
2018-12-07T12:52:49.950Z,12.20
2018-12-07T12:55:17.430Z,12.10
2018-12-07T12:57:44.893Z,12.00
2018-12-07T13:00:12.877Z,12.10
2018-12-07T13:02:40.330Z,12.10
2018-12-07T13:05:08.041Z,12.00
2018-12-07T13:07:35.806Z,12.00
2018-12-07T13:10:04.056Z,12.00
2018-12-07T13:12:31.508Z,11.90
2018-12-07T13:14:59.133Z,11.90
2018-12-07T13:17:26.573Z,11.80
2018-12-07T13:19:54.715Z,11.80
2018-12-07T13:22:22.165Z,11.80
2018-12-07T13:24:49.657Z,11.80
2018-12-07T13:27:17.165Z,11.80
2018-12-07T13:29:44.638Z,11.70
2018-12-07T13:32:12.693Z,11.80
2018-12-07T13:34:40.549Z,11.80
2018-12-07T13:37:08.041Z,11.80
2018-12-07T13:39:35.670Z,11.90
2018-12-07T13:42:03.447Z,11.90
2018-12-07T13:44:31.195Z,11.80
2018-12-07T13:46:58.777Z,11.90
2018-12-07T13:49:26.897Z,11.90
2018-12-07T13:51:54.602Z,11.90
2018-12-07T13:54:23.066Z,11.90
2018-12-07T13:56:51.013Z,11.80
2018-12-07T13:59:18.534Z,11.80
2018-12-07T14:01:46.094Z,11.70
2018-12-07T14:04:13.940Z,11.70
2018-12-07T14:06:41.933Z,11.70
2018-12-07T14:09:09.445Z,11.70
2018-12-07T14:11:36.950Z,11.60
2018-12-07T14:14:04.763Z,11.60
2018-12-07T14:16:32.530Z,11.60
2018-12-07T14:19:00.580Z,11.50
2018-12-07T14:21:28.148Z,11.50
2018-12-07T14:23:55.775Z,11.50
2018-12-07T14:26:23.377Z,11.50
2018-12-07T14:28:50.933Z,11.50
2018-12-07T14:31:18.915Z,11.50
2018-12-07T14:33:46.789Z,11.40
2018-12-07T14:36:14.761Z,11.30
2018-12-07T14:38:42.256Z,11.30
2018-12-07T14:41:09.829Z,11.30
2018-12-07T14:43:37.423Z,11.30
2018-12-07T14:46:05.028Z,11.30
2018-12-07T14:48:33.151Z,11.20
2018-12-07T14:51:01.138Z,11.20
2018-12-07T14:53:28.826Z,11.10
2018-12-07T14:55:56.329Z,11.20
2018-12-07T14:58:24.032Z,11.30
2018-12-07T15:00:51.721Z,11.20
2018-12-07T15:03:19.606Z,11.10
2018-12-07T15:05:47.470Z,11.10
2018-12-07T15:08:15.132Z,11.10
2018-12-07T15:10:42.917Z,11.10
2018-12-07T15:13:10.425Z,11.00
2018-12-07T15:15:38.442Z,11.00
2018-12-07T15:18:05.947Z,11.00
2018-12-07T15:20:33.968Z,11.10
2018-12-07T15:23:01.602Z,11.10
2018-12-07T15:25:29.312Z,11.00
2018-12-07T15:27:56.941Z,11.10
2018-12-07T15:30:25.071Z,11.10
2018-12-07T15:32:52.972Z,11.10
2018-12-07T15:35:20.960Z,11.10
2018-12-07T15:37:48.681Z,11.10
2018-12-07T15:40:16.750Z,11.00
2018-12-07T15:42:44.396Z,11.00
2018-12-07T15:45:12.460Z,10.90
2018-12-07T15:47:40.132Z,10.90
2018-12-07T15:50:08.342Z,10.80
2018-12-07T15:52:35.960Z,10.70
2018-12-07T15:55:03.828Z,10.60
2018-12-07T15:57:31.588Z,10.60
2018-12-07T15:59:59.201Z,10.50
2018-12-07T16:02:26.737Z,10.40
2018-12-07T16:04:54.862Z,10.30
2018-12-07T16:07:22.368Z,10.30
2018-12-07T16:09:49.890Z,10.20
2018-12-07T16:12:17.553Z,10.20
2018-12-07T16:14:45.393Z,10.20
2018-12-07T16:17:13.084Z,10.20
2018-12-07T16:19:40.947Z,10.10
2018-12-07T16:22:08.632Z,10.10
2018-12-07T16:24:36.202Z,10.10
2018-12-07T16:27:03.840Z,10.10
2018-12-07T16:29:31.821Z,10.00
2018-12-07T16:31:59.764Z,10.00
2018-12-07T16:34:27.767Z,9.90
2018-12-07T16:36:55.308Z,9.90
2018-12-07T16:39:22.980Z,9.80
2018-12-07T16:41:52.048Z,9.80
2018-12-07T16:44:19.663Z,9.80
2018-12-07T16:46:47.432Z,9.80
2018-12-07T16:49:15.791Z,9.80
2018-12-07T16:51:43.445Z,9.80
2018-12-07T16:54:11.022Z,9.80
2018-12-07T16:56:38.719Z,9.90
2018-12-07T16:59:06.626Z,9.80
2018-12-07T17:01:34.333Z,9.80
2018-12-07T17:04:03.216Z,9.80
2018-12-07T17:06:30.791Z,9.80
2018-12-07T17:08:58.326Z,9.80
2018-12-07T17:11:25.992Z,9.70
2018-12-07T17:13:53.767Z,9.60
2018-12-07T17:16:21.715Z,9.60
2018-12-07T17:18:49.690Z,9.60
2018-12-07T17:21:17.804Z,9.60
2018-12-07T17:23:46.182Z,9.50
2018-12-07T17:26:13.816Z,9.50
2018-12-07T17:28:41.467Z,9.50
2018-12-07T17:31:09.464Z,9.50
2018-12-07T17:33:37.304Z,9.40
2018-12-07T17:36:05.921Z,9.30
2018-12-07T17:38:33.575Z,9.30
2018-12-07T17:41:01.185Z,9.30
2018-12-07T17:43:28.700Z,9.20
2018-12-07T17:45:56.474Z,9.20
2018-12-07T17:48:24.265Z,9.20
2018-12-07T17:50:51.991Z,9.10
2018-12-07T17:53:19.775Z,9.10
2018-12-07T17:55:47.383Z,9.10
2018-12-07T17:58:15.006Z,9.10
2018-12-07T18:00:42.626Z,9.30
2018-12-07T18:03:10.225Z,9.30
2018-12-07T18:05:38.245Z,9.30
2018-12-07T18:08:05.777Z,9.30
2018-12-07T18:10:33.277Z,9.30
2018-12-07T18:13:00.851Z,9.40
2018-12-07T18:15:28.725Z,9.40
2018-12-07T18:17:56.854Z,9.40
2018-12-07T18:20:24.865Z,9.50
2018-12-07T18:22:52.547Z,9.60
2018-12-07T18:25:20.102Z,9.60
2018-12-07T18:27:48.237Z,9.60
2018-12-07T18:30:16.509Z,9.70
2018-12-07T18:32:44.278Z,9.60
2018-12-07T18:35:12.144Z,9.60
2018-12-07T18:37:40.064Z,9.60
2018-12-07T18:40:07.839Z,9.60
2018-12-07T18:42:35.559Z,9.50
2018-12-07T18:45:03.394Z,9.50
2018-12-07T18:47:31.063Z,9.50
2018-12-07T18:49:58.824Z,9.40
2018-12-07T18:52:26.435Z,9.50
2018-12-07T18:54:54.118Z,9.60
2018-12-07T18:57:21.670Z,9.60
2018-12-07T18:59:49.305Z,9.60
2018-12-07T19:02:17.003Z,9.50
2018-12-07T19:04:44.844Z,9.50
2018-12-07T19:07:12.527Z,9.50
2018-12-07T19:09:40.417Z,9.50
2018-12-07T19:12:08.285Z,9.50
2018-12-07T19:14:36.313Z,9.40
2018-12-07T19:17:04.237Z,9.40
2018-12-07T19:19:32.308Z,9.40
2018-12-07T19:22:00.122Z,9.40
2018-12-07T19:24:27.953Z,9.40
2018-12-07T19:26:55.705Z,9.50
2018-12-07T19:29:23.445Z,9.40
2018-12-07T19:31:51.454Z,9.40
2018-12-07T19:34:19.546Z,9.30
2018-12-07T19:36:47.302Z,9.30
2018-12-07T19:39:15.105Z,9.20
2018-12-07T19:41:42.589Z,9.20
2018-12-07T19:44:10.174Z,9.10
2018-12-07T19:46:37.897Z,9.10
2018-12-07T19:49:05.940Z,9.10
2018-12-07T19:51:33.888Z,9.10
2018-12-07T19:54:01.606Z,9.10
2018-12-07T19:56:29.174Z,9.10
2018-12-07T19:58:56.634Z,9.00
2018-12-07T20:01:24.417Z,9.00
2018-12-07T20:03:52.297Z,9.00
2018-12-07T20:06:19.987Z,9.00
2018-12-07T20:08:47.878Z,9.00
2018-12-07T20:11:15.908Z,9.00
2018-12-07T20:13:43.901Z,9.00
2018-12-07T20:16:12.053Z,9.10
2018-12-07T20:18:40.269Z,9.10
2018-12-07T20:21:07.817Z,9.10
2018-12-07T20:23:35.624Z,9.20
2018-12-07T20:26:03.594Z,9.20
2018-12-07T20:28:31.229Z,9.20
2018-12-07T20:30:59.468Z,9.20
2018-12-07T20:33:27.362Z,9.20
2018-12-07T20:35:55.453Z,9.10
2018-12-07T20:38:22.982Z,9.10
2018-12-07T20:40:50.523Z,9.10
2018-12-07T20:43:18.363Z,9.10
2018-12-07T20:45:45.968Z,9.10
2018-12-07T20:48:14.255Z,9.00
2018-12-07T20:50:42.060Z,9.00
2018-12-07T20:53:09.717Z,8.90
2018-12-07T20:55:37.539Z,8.90
2018-12-07T20:58:05.158Z,8.90
2018-12-07T21:00:32.670Z,8.80
2018-12-07T21:03:00.544Z,8.80
2018-12-07T21:08:52.516Z,8.80
2018-12-07T21:11:20.311Z,8.70
2018-12-07T21:14:05.703Z,8.70
2018-12-07T21:16:44.646Z,8.70
2018-12-07T21:19:12.827Z,8.70
2018-12-07T21:21:40.412Z,8.70
2018-12-07T21:24:07.970Z,8.70
2018-12-07T21:26:35.594Z,8.70
2018-12-07T21:29:03.110Z,8.60
2018-12-07T21:31:31.145Z,8.60
2018-12-07T21:34:02.821Z,8.60
2018-12-07T21:36:37.308Z,8.60
2018-12-07T21:39:10.418Z,8.60
2018-12-07T21:41:38.413Z,8.60
2018-12-07T21:44:05.978Z,8.60
2018-12-07T21:46:34.079Z,8.60
2018-12-07T21:49:02.543Z,8.60
2018-12-07T21:54:26.799Z,8.70
2018-12-07T21:56:54.578Z,8.60
2018-12-07T21:59:22.794Z,8.70
2018-12-07T22:01:51.887Z,8.70
2018-12-07T22:04:20.430Z,8.70
2018-12-07T22:06:48.196Z,8.70
2018-12-07T22:09:16.235Z,8.80
2018-12-07T22:11:44.001Z,8.80
2018-12-07T22:14:11.766Z,8.80
2018-12-07T22:16:39.325Z,8.80
2018-12-07T22:19:06.960Z,8.80
2018-12-07T22:21:34.773Z,8.80
2018-12-07T22:24:02.764Z,8.90
2018-12-07T22:26:30.574Z,8.90
2018-12-07T22:28:58.459Z,8.90
2018-12-07T22:31:26.262Z,8.90
2018-12-07T22:33:54.355Z,8.90
2018-12-07T22:36:22.523Z,8.90
2018-12-07T22:38:50.192Z,8.90
2018-12-07T22:41:17.731Z,8.90
2018-12-07T22:43:45.543Z,8.80
2018-12-07T22:46:13.036Z,8.80
2018-12-07T22:48:40.536Z,8.80
2018-12-07T22:51:08.311Z,8.80
2018-12-07T22:53:35.833Z,8.80
2018-12-07T22:56:03.322Z,8.70
2018-12-07T22:58:31.241Z,8.60
2018-12-07T23:00:58.746Z,8.60
2018-12-07T23:03:26.181Z,8.60
2018-12-07T23:05:54.197Z,8.60
2018-12-07T23:08:21.657Z,8.60
2018-12-07T23:10:49.089Z,8.60
2018-12-07T23:13:16.849Z,8.50
2018-12-07T23:15:44.769Z,8.50
2018-12-07T23:18:12.197Z,8.50
2018-12-07T23:20:39.833Z,8.40
2018-12-07T23:23:07.283Z,8.40
2018-12-07T23:25:34.710Z,8.40
2018-12-07T23:28:02.442Z,8.30
2018-12-07T23:30:30.149Z,8.30
2018-12-07T23:32:57.726Z,8.30
2018-12-07T23:35:25.356Z,8.30
2018-12-07T23:37:53.174Z,8.30
2018-12-07T23:40:20.618Z,8.30
2018-12-07T23:42:48.142Z,8.30
2018-12-07T23:45:15.637Z,8.30
2018-12-07T23:47:43.087Z,8.30
2018-12-07T23:50:10.646Z,8.40
2018-12-07T23:52:38.480Z,8.40
2018-12-07T23:55:05.999Z,8.40
2018-12-07T23:57:33.730Z,8.40
